»·PEaware :: WAT1409 KWVI-KTRK

WAT1409 :: KWVI-KTRK

FLIGHT INFORMATION

Flight Status: Arrived
Operator:
Walker Air Transport
More flights by this operator :: More flights under this callsign
Pilot: Matthew T. (18767)
Aircraft: BEECH AIRCRAFT PREMIER
(PRM1)
More flights by this aircraft type
Origin: KWVI Watsonville Mun
United States
Destination: KTRK Truckee-Tahoe
United States
More flights between these airports :: More routes between these airports
Route: GARLK1 SAPID SIGNA
File this flight plan on PilotEdge
Remarks:
Altitude:
(Current/Filed)
1,700ft
Speed:
(Current/Filed)
300kts
Departed: 14-Oct-22 04:54 PM
Arrived: 14-Oct-22 06:11 PM
Distance/Time
Traveled:
163nm/1:17
Distance/Time
To Go:
Arrived

Flight Plot

Page will automatically refresh every two minutes.

Flight plan parsing failed; only flown route is shown


Map Options




Map Legend


Flown Route
Filed Route
Departure Airport
Arrival Airport
Navaid (VOR, NDB)
Fix

Horizontal Profiles

Position Reports

Time Latitude Longitude Heading Altitude Ground
Speed
14-Oct-22 16:44 36.935658 -121.788310 279 170ft 0kts
14-Oct-22 16:46 36.937337 -121.788067 28 170ft 5kts
14-Oct-22 16:47 36.938636 -121.787128 359 170ft 0kts
14-Oct-22 16:48 36.938636 -121.787128 359 170ft 0kts
14-Oct-22 16:49 36.938636 -121.787128 359 170ft 0kts
14-Oct-22 16:50 36.938636 -121.787128 359 170ft 0kts
14-Oct-22 16:51 36.938710 -121.787135 352 170ft 0kts
14-Oct-22 16:52 36.939026 -121.787951 208 170ft 9kts
14-Oct-22 16:53 36.910430 -121.813269 228 1404ft 182kts
14-Oct-22 16:54 36.879189 -121.856128 227 3852ft 214kts
14-Oct-22 16:55 36.838469 -121.909221 225 6534ft 215kts
14-Oct-22 16:56 36.784782 -121.968068 225 8333ft 286kts
14-Oct-22 16:57 36.795280 -122.055391 310 11100ft 292kts
14-Oct-22 16:58 36.846607 -122.134080 311 13800ft 300kts
14-Oct-22 16:59 36.860714 -122.155232 311 14430ft 304kts
14-Oct-22 17:22 36.937471 -121.787926 32 170ft 10kts
14-Oct-22 17:23 36.938570 -121.787233 356 170ft 0kts
14-Oct-22 17:24 36.938570 -121.787233 356 170ft 0kts
14-Oct-22 17:25 36.938570 -121.787233 356 170ft 0kts
14-Oct-22 17:26 36.928998 -121.795818 212 320ft 142kts
14-Oct-22 17:27 36.890658 -121.840710 228 2549ft 230kts
14-Oct-22 17:28 36.840891 -121.905553 223 5549ft 274kts
14-Oct-22 17:29 36.783869 -121.968510 226 8517ft 272kts
14-Oct-22 17:30 36.794134 -122.053802 311 10760ft 279kts
14-Oct-22 17:31 36.845490 -122.132251 310 12604ft 300kts
14-Oct-22 17:32 36.909569 -122.194475 359 14495ft 301kts
14-Oct-22 17:33 36.993911 -122.190324 4 16251ft 308kts
14-Oct-22 17:34 37.082722 -122.185545 4 16992ft 339kts
14-Oct-22 17:35 37.184050 -122.177471 16 16985ft 385kts
14-Oct-22 17:36 37.282791 -122.116445 30 17034ft 406kts
14-Oct-22 17:37 37.376191 -122.051679 30 16962ft 352kts
14-Oct-22 17:38 37.460046 -121.993334 30 16967ft 344kts
14-Oct-22 17:39 37.545387 -121.934262 31 16955ft 357kts
14-Oct-22 17:40 37.633652 -121.872084 30 16945ft 368kts
14-Oct-22 17:41 37.723679 -121.808962 30 16944ft 373kts
14-Oct-22 17:42 37.814404 -121.745174 30 16943ft 376kts
14-Oct-22 17:43 37.905706 -121.680759 30 17013ft 375kts
14-Oct-22 17:44 37.996842 -121.616344 30 17012ft 377kts
14-Oct-22 17:45 38.088528 -121.551322 30 17007ft 377kts
14-Oct-22 17:46 38.180009 -121.486259 30 17000ft 378kts
14-Oct-22 17:47 38.271409 -121.421058 30 16998ft 378kts
14-Oct-22 17:48 38.362933 -121.355585 30 16995ft 378kts
14-Oct-22 17:49 38.454487 -121.289892 31 16995ft 378kts
14-Oct-22 17:50 38.546118 -121.223949 31 16992ft 378kts
14-Oct-22 17:51 38.637237 -121.158168 30 17000ft 368kts
14-Oct-22 17:52 38.719272 -121.098818 30 17040ft 316kts
14-Oct-22 17:53 38.791997 -121.046027 30 17070ft 291kts
14-Oct-22 17:54 38.868269 -120.990513 30 17077ft 345kts
14-Oct-22 17:55 38.956432 -120.926346 30 17080ft 382kts
14-Oct-22 17:56 39.048383 -120.859030 31 17145ft 377kts
14-Oct-22 17:57 39.138757 -120.792717 31 16706ft 361kts
14-Oct-22 17:58 39.219507 -120.733284 30 14969ft 313kts
14-Oct-22 17:59 39.291180 -120.680407 30 13242ft 286kts
14-Oct-22 18:00 39.361246 -120.631260 25 12291ft 301kts
14-Oct-22 18:01 39.439282 -120.586372 24 12283ft 309kts
14-Oct-22 18:02 39.501723 -120.516735 77 11558ft 300kts
14-Oct-22 18:03 39.516539 -120.423741 79 11072ft 227kts
14-Oct-22 18:04 39.515861 -120.351162 128 10902ft 198kts
14-Oct-22 18:05 39.468466 -120.308329 148 10052ft 223kts
14-Oct-22 18:06 39.422210 -120.266335 140 9050ft 187kts
14-Oct-22 18:07 39.383131 -120.225418 139 7860ft 149kts
14-Oct-22 18:08 39.349592 -120.193415 139 6848ft 143kts
14-Oct-22 18:09 39.326191 -120.155447 117 5959ft 131kts
14-Oct-22 18:10 39.318144 -120.137817 121 5906ft 0kts

Navigation Log

Ident Type
Flight plan parsing failed, navigation log unavailable